createdAt,value
2022-08-14T00:00:19.316Z,97.80
2022-08-14T00:03:06.062Z,97.70
2022-08-14T00:05:58.430Z,97.70
2022-08-14T00:08:47.174Z,97.20
2022-08-14T00:11:36.221Z,97.20
2022-08-14T00:14:22.773Z,97.30
2022-08-14T00:17:12.295Z,97.60
2022-08-14T00:19:58.969Z,97.40
2022-08-14T00:22:57.101Z,96.80
2022-08-14T00:25:53.837Z,96.20
2022-08-14T00:28:46.111Z,95.70
2022-08-14T00:31:44.196Z,95.50
2022-08-14T00:34:36.466Z,95.40
2022-08-14T00:37:33.115Z,95.30
2022-08-14T00:40:33.125Z,95.70
2022-08-14T00:43:22.600Z,96.10
2022-08-14T00:46:32.520Z,96.50
2022-08-14T00:49:21.183Z,96.70
2022-08-14T00:52:09.624Z,97.10
2022-08-14T00:55:01.518Z,96.80
2022-08-14T00:58:08.959Z,97.10
2022-08-14T01:00:57.449Z,96.40
2022-08-14T01:03:44.858Z,96.80
2022-08-14T01:06:34.391Z,96.70
2022-08-14T01:09:23.619Z,96.60
2022-08-14T01:12:11.751Z,97.10
2022-08-14T01:14:59.034Z,98.20
2022-08-14T01:18:03.372Z,98.90
2022-08-14T01:21:11.625Z,99.30
2022-08-14T01:24:01.733Z,99.90
2022-08-14T01:26:53.276Z,99.90
2022-08-14T01:29:58.910Z,99.90
2022-08-14T01:32:51.410Z,99.90
2022-08-14T01:36:04.605Z,99.90
2022-08-14T01:38:49.006Z,99.60
2022-08-14T01:41:37.781Z,98.90
2022-08-14T01:44:32.139Z,98.70
2022-08-14T01:47:22.079Z,98.90
2022-08-14T01:50:10.261Z,99.40
2022-08-14T01:52:58.838Z,99.60
2022-08-14T01:55:48.604Z,99.90
2022-08-14T01:58:37.971Z,99.90
2022-08-14T02:01:51.312Z,99.90
2022-08-14T02:04:57.148Z,99.90
2022-08-14T02:08:08.541Z,99.70
2022-08-14T02:11:15.820Z,99.40
2022-08-14T02:14:09.240Z,99.90
2022-08-14T02:17:01.607Z,99.90
2022-08-14T02:19:48.493Z,99.90
2022-08-14T02:22:47.399Z,99.90
2022-08-14T02:25:35.078Z,99.90
2022-08-14T02:28:56.069Z,99.90
2022-08-14T02:31:36.410Z,99.90
2022-08-14T02:34:32.582Z,99.90
2022-08-14T02:37:23.198Z,99.90
2022-08-14T02:40:33.769Z,99.90
2022-08-14T02:43:22.560Z,99.90
2022-08-14T02:46:11.113Z,99.90
2022-08-14T02:49:06.197Z,99.90
2022-08-14T02:51:53.349Z,99.90
2022-08-14T02:54:40.468Z,99.90
2022-08-14T02:57:39.685Z,99.90
2022-08-14T03:00:27.849Z,99.90
2022-08-14T03:03:16.436Z,99.90
2022-08-14T03:06:06.493Z,99.90
2022-08-14T03:08:56.341Z,99.90
2022-08-14T03:11:45.136Z,99.90
2022-08-14T03:14:35.714Z,99.90
2022-08-14T03:17:22.459Z,99.90
2022-08-14T03:20:11.998Z,99.90
2022-08-14T03:23:03.092Z,99.90
2022-08-14T03:25:51.241Z,99.90
2022-08-14T03:28:40.364Z,99.90
2022-08-14T03:31:30.151Z,99.90
2022-08-14T03:34:24.941Z,99.90
2022-08-14T03:37:38.095Z,99.90
2022-08-14T03:40:31.374Z,99.90
2022-08-14T03:43:18.831Z,99.90
2022-08-14T03:46:10.154Z,99.90
2022-08-14T03:49:13.834Z,99.90
2022-08-14T03:52:38.124Z,99.90
2022-08-14T03:55:19.685Z,99.90
2022-08-14T03:58:07.910Z,99.90
2022-08-14T04:00:54.586Z,99.90
2022-08-14T04:03:41.545Z,99.90
2022-08-14T04:06:31.566Z,99.90
2022-08-14T04:09:19.013Z,99.90
2022-08-14T04:12:08.428Z,99.90
2022-08-14T04:15:01.935Z,99.90
2022-08-14T04:17:48.574Z,99.90
2022-08-14T04:20:35.498Z,99.90
2022-08-14T04:23:39.641Z,99.90
2022-08-14T04:26:43.049Z,99.90
2022-08-14T04:29:29.673Z,99.90
2022-08-14T04:32:58.417Z,99.90
2022-08-14T04:35:56.584Z,99.90
2022-08-14T04:38:52.511Z,99.90
2022-08-14T04:41:57.593Z,99.90
2022-08-14T04:44:44.470Z,99.90
2022-08-14T04:47:57.029Z,99.90
2022-08-14T04:50:49.157Z,99.90
2022-08-14T04:53:43.923Z,99.90
2022-08-14T04:56:34.102Z,99.90
2022-08-14T04:59:21.766Z,99.90
2022-08-14T05:02:08.395Z,99.90
2022-08-14T05:04:57.057Z,99.90
2022-08-14T05:07:54.375Z,99.90
2022-08-14T05:10:52.073Z,99.90
2022-08-14T05:13:59.525Z,99.90
2022-08-14T05:16:48.112Z,99.90
2022-08-14T05:19:44.178Z,99.90
2022-08-14T05:22:33.184Z,99.90
2022-08-14T05:25:20.590Z,99.90
2022-08-14T05:28:12.394Z,99.90
2022-08-14T05:31:06.336Z,99.90
2022-08-14T05:33:56.493Z,99.90
2022-08-14T05:36:43.686Z,99.90
2022-08-14T05:39:39.729Z,99.80
2022-08-14T05:42:31.684Z,99.40
2022-08-14T05:45:21.335Z,99.90
2022-08-14T05:48:09.586Z,99.00
2022-08-14T05:50:56.944Z,98.60
2022-08-14T05:53:43.995Z,97.80
2022-08-14T05:56:50.206Z,97.60
2022-08-14T05:59:39.560Z,96.50
2022-08-14T06:02:26.409Z,95.40
2022-08-14T06:05:13.339Z,95.40
2022-08-14T06:08:03.072Z,95.40
2022-08-14T06:10:57.531Z,95.50
2022-08-14T06:13:46.095Z,95.10
2022-08-14T06:16:33.069Z,94.10
2022-08-14T06:19:20.031Z,94.00
2022-08-14T06:22:06.442Z,93.80
2022-08-14T06:24:55.446Z,93.60
2022-08-14T06:27:43.189Z,92.30
2022-08-14T06:30:46.461Z,92.10
2022-08-14T06:35:04.622Z,91.00
2022-08-14T06:36:41.603Z,90.00
2022-08-14T06:39:36.516Z,86.50
2022-08-14T06:42:32.860Z,81.20
2022-08-14T06:45:21.202Z,79.30
2022-08-14T06:48:18.258Z,78.20
2022-08-14T06:51:08.293Z,76.80
2022-08-14T06:53:58.284Z,75.50
2022-08-14T06:56:54.103Z,74.70
2022-08-14T06:59:41.291Z,72.70
2022-08-14T07:02:46.035Z,72.70
2022-08-14T07:05:55.417Z,71.50
2022-08-14T07:08:45.582Z,70.50
2022-08-14T07:11:34.645Z,69.50
2022-08-14T07:14:21.817Z,69.00
2022-08-14T07:17:08.634Z,68.00
2022-08-14T07:19:56.266Z,67.40
2022-08-14T07:22:49.866Z,67.70
2022-08-14T07:25:44.906Z,67.50
2022-08-14T07:28:43.130Z,66.80
2022-08-14T07:31:30.666Z,66.00
2022-08-14T07:34:26.356Z,64.30
2022-08-14T07:37:23.666Z,64.30
2022-08-14T07:40:13.748Z,63.80
2022-08-14T07:43:14.112Z,63.50
2022-08-14T07:46:01.439Z,62.10
2022-08-14T07:48:49.433Z,62.90
2022-08-14T07:51:40.556Z,62.70
2022-08-14T07:54:30.381Z,60.60
2022-08-14T07:57:24.801Z,60.00
2022-08-14T08:00:31.136Z,59.70
2022-08-14T08:03:24.959Z,59.40
2022-08-14T08:06:17.810Z,58.20
2022-08-14T08:09:05.736Z,58.20
2022-08-14T08:11:54.203Z,57.90
2022-08-14T08:14:56.985Z,58.60
2022-08-14T08:17:53.739Z,58.40
2022-08-14T08:20:52.229Z,58.00
2022-08-14T08:23:43.642Z,57.30
2022-08-14T08:26:38.148Z,56.50
2022-08-14T08:29:29.037Z,56.30
2022-08-14T08:32:17.382Z,56.50
2022-08-14T08:35:04.313Z,55.90
2022-08-14T08:37:53.814Z,56.30
2022-08-14T08:40:50.206Z,55.30
2022-08-14T08:43:39.665Z,55.50
2022-08-14T08:46:33.190Z,54.80
2022-08-14T08:49:23.607Z,54.90
2022-08-14T08:52:24.691Z,54.00
2022-08-14T08:55:15.904Z,54.20
2022-08-14T08:58:05.552Z,54.10
2022-08-14T09:01:02.923Z,54.40
2022-08-14T09:03:49.850Z,54.40
2022-08-14T09:07:01.255Z,54.20
2022-08-14T09:09:59.252Z,54.00
2022-08-14T09:12:51.663Z,53.50
2022-08-14T09:15:42.787Z,53.70
2022-08-14T09:18:29.983Z,54.00
2022-08-14T09:21:16.707Z,54.30
2022-08-14T09:24:29.039Z,53.50
2022-08-14T09:27:22.379Z,53.40
2022-08-14T09:30:13.197Z,52.90
2022-08-14T09:33:56.138Z,52.60
2022-08-14T09:37:07.301Z,53.10
2022-08-14T09:40:06.080Z,52.90
2022-08-14T09:43:11.028Z,52.80
2022-08-14T09:46:01.114Z,53.00
2022-08-14T09:48:59.737Z,52.90
2022-08-14T09:51:58.460Z,53.00
2022-08-14T09:54:48.521Z,52.50
2022-08-14T09:57:36.543Z,52.20
2022-08-14T10:00:43.831Z,52.30
2022-08-14T10:03:34.515Z,52.40
2022-08-14T10:06:25.219Z,52.20
2022-08-14T10:09:16.765Z,51.70
2022-08-14T10:12:06.819Z,52.30
2022-08-14T10:15:19.491Z,52.80
2022-08-14T10:18:09.577Z,52.40
2022-08-14T10:21:09.661Z,52.00
2022-08-14T10:23:56.540Z,51.70
2022-08-14T10:27:00.183Z,51.70
2022-08-14T10:29:50.949Z,51.60
2022-08-14T10:32:51.873Z,51.60
2022-08-14T10:35:47.970Z,51.50
2022-08-14T10:38:36.684Z,52.20
2022-08-14T10:41:46.569Z,52.10
2022-08-14T10:44:38.701Z,51.30
2022-08-14T10:47:40.203Z,51.90
2022-08-14T10:50:45.859Z,51.80
2022-08-14T10:53:34.913Z,50.90
2022-08-14T10:56:35.037Z,51.50
2022-08-14T10:59:23.384Z,51.20
2022-08-14T11:02:35.813Z,51.10
2022-08-14T11:05:28.498Z,50.80
2022-08-14T11:08:19.681Z,51.10
2022-08-14T11:11:07.109Z,51.10
2022-08-14T11:13:57.621Z,51.60
2022-08-14T11:16:53.417Z,51.20
2022-08-14T11:19:40.921Z,51.10
2022-08-14T11:22:56.319Z,50.80
2022-08-14T11:25:53.450Z,51.30
2022-08-14T11:28:48.117Z,51.00
2022-08-14T11:31:39.342Z,50.70
2022-08-14T11:34:31.871Z,50.90
2022-08-14T11:37:31.662Z,50.10
2022-08-14T11:40:29.358Z,49.90
2022-08-14T11:43:18.360Z,50.40
2022-08-14T11:46:17.901Z,50.40
2022-08-14T11:49:27.221Z,50.30
2022-08-14T11:52:21.795Z,49.70
2022-08-14T11:55:12.632Z,49.50
2022-08-14T11:58:05.267Z,49.00
2022-08-14T12:00:59.886Z,48.50
2022-08-14T12:03:57.158Z,48.00
2022-08-14T12:06:51.634Z,48.10
2022-08-14T12:09:42.812Z,48.00
2022-08-14T12:12:36.217Z,46.90
2022-08-14T12:15:34.110Z,46.90
2022-08-14T12:18:34.357Z,47.40
2022-08-14T12:21:25.523Z,48.00
2022-08-14T12:24:36.311Z,48.00
2022-08-14T12:27:19.560Z,48.50
2022-08-14T12:30:15.034Z,48.60
2022-08-14T12:33:23.890Z,48.20
2022-08-14T12:36:22.041Z,48.50
2022-08-14T12:39:20.317Z,47.80
2022-08-14T12:42:07.973Z,47.30
2022-08-14T12:44:58.659Z,47.30
2022-08-14T12:47:45.523Z,47.60
2022-08-14T12:50:40.489Z,47.90
2022-08-14T12:53:38.895Z,47.40
2022-08-14T12:56:34.046Z,47.30
2022-08-14T12:59:33.143Z,47.50
2022-08-14T13:02:27.144Z,48.30
2022-08-14T13:05:15.480Z,48.40
2022-08-14T13:08:10.647Z,48.50
2022-08-14T13:11:18.516Z,48.80
2022-08-14T13:14:07.830Z,49.00
2022-08-14T13:17:06.137Z,48.40
2022-08-14T13:19:57.618Z,48.90
2022-08-14T13:22:45.879Z,48.90
2022-08-14T13:25:32.568Z,48.30
2022-08-14T13:28:33.155Z,48.00
2022-08-14T13:31:24.018Z,47.90
2022-08-14T13:34:17.021Z,47.90
2022-08-14T13:37:07.054Z,47.80
2022-08-14T13:39:56.791Z,48.00
2022-08-14T13:42:46.227Z,47.90
2022-08-14T13:46:00.054Z,47.70
2022-08-14T13:48:44.131Z,47.90
2022-08-14T13:51:36.229Z,48.20
2022-08-14T13:54:24.840Z,48.00
2022-08-14T13:57:13.845Z,47.80
2022-08-14T14:00:04.483Z,47.30
2022-08-14T14:03:01.139Z,47.50
2022-08-14T14:05:52.561Z,47.20
2022-08-14T14:08:48.122Z,46.90
2022-08-14T14:11:35.560Z,47.70
2022-08-14T14:14:44.602Z,47.30
2022-08-14T14:17:31.902Z,47.50
2022-08-14T14:20:35.455Z,47.30
2022-08-14T14:23:24.362Z,48.00
2022-08-14T14:26:18.876Z,47.50
2022-08-14T14:29:14.452Z,46.90
2022-08-14T14:32:03.649Z,47.90
2022-08-14T14:34:54.422Z,47.60
2022-08-14T14:37:46.845Z,46.90
2022-08-14T14:40:54.150Z,47.80
2022-08-14T14:43:44.940Z,47.20
2022-08-14T14:46:37.261Z,47.20
2022-08-14T14:49:31.760Z,46.60
2022-08-14T14:52:37.111Z,46.90
2022-08-14T14:55:28.895Z,46.60
2022-08-14T14:58:31.900Z,46.40
2022-08-14T15:01:23.372Z,46.70
2022-08-14T15:04:20.663Z,47.20
2022-08-14T15:07:08.250Z,47.50
2022-08-14T15:09:54.978Z,46.50
2022-08-14T15:12:56.321Z,46.60
2022-08-14T15:15:44.603Z,46.40
2022-08-14T15:18:37.591Z,46.40
2022-08-14T15:21:26.705Z,46.60
2022-08-14T15:24:20.642Z,46.50
2022-08-14T15:27:11.687Z,47.10
2022-08-14T15:30:01.230Z,47.90
2022-08-14T15:32:49.492Z,46.80
2022-08-14T15:35:37.122Z,46.80
2022-08-14T15:38:34.049Z,46.80
2022-08-14T15:41:33.765Z,47.20
2022-08-14T15:44:31.343Z,47.30
2022-08-14T15:47:28.429Z,46.60
2022-08-14T15:50:16.172Z,47.80
2022-08-14T15:53:09.083Z,46.80
2022-08-14T15:55:58.939Z,46.40
2022-08-14T15:58:45.768Z,47.00
2022-08-14T16:01:53.651Z,47.20
2022-08-14T16:04:40.477Z,46.60
2022-08-14T16:07:27.644Z,46.30
2022-08-14T16:10:29.094Z,45.60
2022-08-14T16:13:17.164Z,44.80
2022-08-14T16:16:34.720Z,44.20
2022-08-14T16:19:21.207Z,43.80
2022-08-14T16:22:59.351Z,44.10
2022-08-14T16:25:34.344Z,44.20
2022-08-14T16:28:27.414Z,44.10
2022-08-14T16:31:14.711Z,44.10
2022-08-14T16:34:44.172Z,43.80
2022-08-14T16:37:11.941Z,43.60
2022-08-14T16:40:02.477Z,43.20
2022-08-14T16:43:02.989Z,43.40
2022-08-14T16:45:53.732Z,43.80
2022-08-14T16:48:57.918Z,43.80
2022-08-14T16:51:46.788Z,44.30
2022-08-14T16:54:44.406Z,44.50
2022-08-14T16:57:32.835Z,44.70
2022-08-14T17:00:32.606Z,44.60
2022-08-14T17:03:19.702Z,44.60
2022-08-14T17:06:30.857Z,44.80
2022-08-14T17:09:28.485Z,44.90
2022-08-14T17:12:28.665Z,45.20
2022-08-14T17:15:22.566Z,45.30
2022-08-14T17:18:09.448Z,45.50
2022-08-14T17:21:19.433Z,46.70
2022-08-14T17:24:56.448Z,46.90
2022-08-14T17:27:23.475Z,47.60
2022-08-14T17:30:32.478Z,46.00
2022-08-14T17:36:28.176Z,46.30
2022-08-14T17:39:17.216Z,47.10
2022-08-14T17:42:13.357Z,46.40
2022-08-14T17:45:02.103Z,47.10
2022-08-14T17:47:49.046Z,47.30
2022-08-14T17:50:59.692Z,48.90
2022-08-14T17:53:52.864Z,48.70
2022-08-14T17:56:49.566Z,49.20
2022-08-14T17:59:39.544Z,49.10
2022-08-14T18:02:31.406Z,49.50
2022-08-14T18:05:23.254Z,48.90
2022-08-14T18:08:32.795Z,49.70
2022-08-14T18:11:22.910Z,51.30
2022-08-14T18:14:10.853Z,52.70
2022-08-14T18:17:20.570Z,53.50
2022-08-14T18:20:16.061Z,54.10
2022-08-14T18:23:18.857Z,54.80
2022-08-14T18:26:09.561Z,55.20
2022-08-14T18:29:17.114Z,55.60
2022-08-14T18:32:47.307Z,56.30
2022-08-14T18:35:56.854Z,56.60
2022-08-14T18:39:00.172Z,57.30
2022-08-14T18:41:47.413Z,57.60
2022-08-14T18:45:12.833Z,58.10
2022-08-14T18:48:33.470Z,58.50
2022-08-14T18:51:46.227Z,58.70
2022-08-14T18:54:38.523Z,59.10
2022-08-14T18:57:25.109Z,59.50
2022-08-14T19:00:51.125Z,59.80
2022-08-14T19:03:47.782Z,59.90
2022-08-14T19:06:44.741Z,60.40
2022-08-14T19:09:58.884Z,60.70
2022-08-14T19:13:12.224Z,60.90
2022-08-14T19:16:07.324Z,61.00
2022-08-14T19:19:00.362Z,61.40
2022-08-14T19:21:56.580Z,61.60
2022-08-14T19:24:45.110Z,61.60
2022-08-14T19:27:37.703Z,61.60
2022-08-14T19:30:26.364Z,61.80
2022-08-14T19:33:48.150Z,62.00
2022-08-14T19:37:05.245Z,62.10
2022-08-14T19:39:54.447Z,62.10
2022-08-14T19:42:46.634Z,62.20
2022-08-14T19:45:34.112Z,62.00
2022-08-14T19:48:21.229Z,62.00
2022-08-14T19:51:09.156Z,62.00
2022-08-14T19:54:06.241Z,62.40
2022-08-14T19:57:00.586Z,62.40
2022-08-14T19:59:57.679Z,62.90
2022-08-14T20:02:48.716Z,63.30
2022-08-14T20:05:45.491Z,64.10
2022-08-14T20:10:59.960Z,64.50
2022-08-14T20:12:02.874Z,64.70
2022-08-14T20:14:51.877Z,64.90
2022-08-14T20:17:40.208Z,65.10
2022-08-14T20:20:31.466Z,65.20
2022-08-14T20:23:20.107Z,65.30
2022-08-14T20:26:31.163Z,65.30
2022-08-14T20:29:29.900Z,65.30
2022-08-14T20:32:18.300Z,65.30
2022-08-14T20:35:08.598Z,65.60
2022-08-14T20:38:00.073Z,65.90
2022-08-14T20:40:52.019Z,65.90
2022-08-14T20:43:58.566Z,66.40
2022-08-14T20:46:47.714Z,66.60
2022-08-14T20:49:38.052Z,66.70
2022-08-14T20:52:30.608Z,67.10
2022-08-14T20:55:29.609Z,67.50
2022-08-14T20:58:42.013Z,68.10
2022-08-14T21:01:35.780Z,68.40
2022-08-14T21:04:26.627Z,69.20
2022-08-14T21:07:25.350Z,70.50
2022-08-14T21:10:33.182Z,70.00
2022-08-14T21:14:09.051Z,69.90
2022-08-14T21:16:33.387Z,70.10
2022-08-14T21:19:26.124Z,69.80
2022-08-14T21:22:13.033Z,70.20
2022-08-14T21:25:02.182Z,70.40
2022-08-14T21:27:56.561Z,70.90
2022-08-14T21:30:51.254Z,71.50
2022-08-14T21:33:42.882Z,72.50
2022-08-14T21:36:31.530Z,72.20
2022-08-14T21:39:18.521Z,72.50
2022-08-14T21:42:06.082Z,72.60
2022-08-14T21:44:53.556Z,72.80
2022-08-14T21:47:43.218Z,73.00
2022-08-14T21:50:39.727Z,73.30
2022-08-14T21:53:58.141Z,73.70
2022-08-14T21:56:57.641Z,74.80
2022-08-14T21:59:45.360Z,75.20
2022-08-14T22:02:32.230Z,75.70
2022-08-14T22:05:21.848Z,76.70
2022-08-14T22:08:12.298Z,77.20
2022-08-14T22:11:01.900Z,78.10
2022-08-14T22:13:51.461Z,79.10
2022-08-14T22:17:01.699Z,79.40
2022-08-14T22:19:54.667Z,80.10
2022-08-14T22:22:42.710Z,80.20
2022-08-14T22:25:33.551Z,80.50
2022-08-14T22:28:32.907Z,81.10
2022-08-14T22:31:23.039Z,81.70
2022-08-14T22:34:12.121Z,82.50
2022-08-14T22:37:02.063Z,83.40
2022-08-14T22:40:46.123Z,84.30
2022-08-14T22:43:01.328Z,85.60
2022-08-14T22:45:56.539Z,86.00
2022-08-14T22:48:49.231Z,86.40
2022-08-14T22:51:48.190Z,86.70
2022-08-14T22:54:52.417Z,87.10
2022-08-14T22:57:41.910Z,88.10
2022-08-14T23:00:31.339Z,88.80
2022-08-14T23:03:19.660Z,89.70
2022-08-14T23:07:02.737Z,90.20
2022-08-14T23:09:36.106Z,90.60
2022-08-14T23:12:28.407Z,91.00
2022-08-14T23:15:17.916Z,91.20
2022-08-14T23:18:06.234Z,91.50
2022-08-14T23:20:54.721Z,91.80
2022-08-14T23:23:43.423Z,91.90
2022-08-14T23:26:47.700Z,92.00
2022-08-14T23:29:37.926Z,92.20
2022-08-14T23:32:30.155Z,92.30
2022-08-14T23:35:19.637Z,92.50
2022-08-14T23:38:13.274Z,92.40
2022-08-14T23:41:17.779Z,92.80
2022-08-14T23:44:06.001Z,92.90
2022-08-14T23:46:56.940Z,93.00
2022-08-14T23:49:56.742Z,93.30
2022-08-14T23:53:04.102Z,93.80
2022-08-14T23:55:57.279Z,94.20
2022-08-14T23:58:44.228Z,94.50
